Time;durP1;ratioP1;P1;durP2;ratioP2;P2;SDS_P1;SDS_P2;PMS_P1;PMS_P2;Temp;Humidity;BMP_temperature;BMP_pressure;BME280_temperature;BME280_humidity;BME280_pressure;Samples;Min_cycle;Max_cycle;Signal;HPM_P1;HPM_P2
2022/12/25 00:02:54;;;;;;;10.38;2.70;;;;;;;7.12;98.50;100148.72;10425677;28;20041;-74
2022/12/25 00:07:56;;;;;;;7.32;2.28;;;;;;;7.08;98.79;100133.97;10428740;28;20041;-74
2022/12/25 00:12:57;;;;;;;8.43;2.40;;;;;;;7.17;98.63;100123.38;10426311;28;20410;-75
2022/12/25 00:17:59;;;;;;;10.10;3.00;;;;;;;7.11;98.46;100131.31;10424958;28;20055;-75
2022/12/25 00:23:01;;;;;;;7.90;2.30;;;;;;;7.16;98.53;100144.31;10424425;28;20095;-75
2022/12/25 00:28:03;;;;;;;6.03;2.10;;;;;;;7.06;98.82;100141.84;10427027;28;20064;-75
2022/12/25 00:33:04;;;;;;;8.80;1.88;;;;;;;6.87;99.35;100137.78;10421423;28;20041;-75
2022/12/25 00:38:06;;;;;;;8.38;2.42;;;;;;;6.57;100.00;100141.69;10423479;28;20049;-75
2022/12/25 00:43:08;;;;;;;9.95;2.38;;;;;;;6.42;100.00;100148.00;10424282;28;20045;-75
2022/12/25 00:48:10;;;;;;;9.35;2.97;;;;;;;6.34;100.00;100139.41;10427108;28;20038;-74
2022/12/25 00:53:12;;;;;;;7.57;2.90;;;;;;;6.44;100.00;100129.69;10423087;28;20072;-75
2022/12/25 00:58:13;;;;;;;8.50;2.78;;;;;;;6.33;100.00;100122.03;10422278;28;20080;-75
2022/12/25 01:03:16;;;;;;;9.25;2.63;;;;;;;6.20;100.00;100126.53;10423038;28;20459;-75
2022/12/25 01:08:18;;;;;;;7.47;2.47;;;;;;;6.03;100.00;100131.09;10424777;28;20052;-75
2022/12/25 01:13:20;;;;;;;13.32;2.22;;;;;;;5.85;100.00;100131.28;10422427;28;20049;-74
2022/12/25 01:18:23;;;;;;;7.30;2.30;;;;;;;5.73;100.00;100134.84;10422087;28;20124;-75
2022/12/25 01:23:25;;;;;;;8.18;2.30;;;;;;;5.61;100.00;100134.97;10421493;28;20037;-75
2022/12/25 01:28:27;;;;;;;5.82;2.20;;;;;;;5.38;100.00;100128.25;10420082;28;20053;-75
2022/12/25 01:33:29;;;;;;;9.80;2.75;;;;;;;5.21;100.00;100137.94;10424013;28;20529;-75
2022/12/25 01:38:31;;;;;;;5.10;1.98;;;;;;;4.98;100.00;100152.03;10421207;28;20052;-76
2022/12/25 01:43:33;;;;;;;6.15;2.10;;;;;;;4.99;100.00;100164.16;10420322;28;20033;-75
2022/12/25 01:48:37;;;;;;;5.93;2.33;;;;;;;4.70;100.00;100176.53;10420902;28;20414;-75
2022/12/25 01:53:39;;;;;;;9.65;2.72;;;;;;;4.54;100.00;100176.59;10422831;28;20534;-75
2022/12/25 01:58:40;;;;;;;6.80;2.65;;;;;;;4.70;100.00;100184.34;10420138;28;20049;-75
2022/12/25 02:03:42;;;;;;;5.22;2.08;;;;;;;4.46;100.00;100180.09;10420537;28;20121;-75
2022/12/25 02:08:44;;;;;;;5.45;2.70;;;;;;;4.11;100.00;100178.50;10418784;28;20050;-75
2022/12/25 02:13:46;;;;;;;7.50;2.63;;;;;;;3.93;100.00;100170.75;10424147;28;20041;-75
2022/12/25 02:18:52;;;;;;;5.88;2.97;;;;;;;3.98;100.00;100185.47;10423436;28;20178;-76
2022/12/25 02:24:12;;;;;;;5.13;2.28;;;;;;;3.96;100.00;100187.22;10421359;28;20538;-75
2022/12/25 02:29:33;;;;;;;6.10;2.72;;;;;;;3.81;100.00;100182.06;10421104;28;20049;-75
2022/12/25 02:35:00;;;;;;;5.72;2.50;;;;;;;3.66;100.00;100189.88;10420698;28;20124;-75
2022/12/25 02:40:23;;;;;;;4.75;2.75;;;;;;;3.57;100.00;100180.34;10422032;28;20045;-75
2022/12/25 03:07:08;;;;;;;7.60;3.60;;;;;;;3.21;100.00;100192.50;10377412;28;20464;-75
2022/12/25 03:12:19;;;;;;;7.82;3.10;;;;;;;3.34;100.00;100190.75;10377033;28;20042;-75
2022/12/25 03:17:20;;;;;;;10.25;4.03;;;;;;;3.50;100.00;100187.31;10377309;28;20064;-74
2022/12/25 03:27:51;;;;;;;10.45;3.17;;;;;;;3.07;100.00;100183.81;10377590;28;20057;-74
2022/12/25 03:33:12;;;;;;;8.85;3.85;;;;;;;3.06;100.00;100192.50;10376261;28;20066;-74
2022/12/25 04:38:19;;;;;;;6.88;4.20;;;;;;;2.53;100.00;100212.25;10379353;28;20081;-74
2022/12/25 04:43:23;;;;;;;11.82;5.00;;;;;;;2.17;100.00;100214.66;10380262;28;20115;-74
2022/12/25 04:48:27;;;;;;;10.05;4.70;;;;;;;2.15;100.00;100216.41;10379377;28;20042;-75
2022/12/25 04:53:28;;;;;;;7.55;4.43;;;;;;;2.15;100.00;100231.97;10380452;28;20049;-75
2022/12/25 04:58:31;;;;;;;11.70;4.97;;;;;;;2.08;100.00;100240.56;10379913;28;20041;-74
2022/12/25 05:03:33;;;;;;;7.18;4.60;;;;;;;1.97;100.00;100245.69;10379845;28;20052;-75
2022/12/25 05:08:36;;;;;;;8.82;4.72;;;;;;;1.74;100.00;100242.94;10379519;28;20049;-75
2022/12/25 05:13:38;;;;;;;8.32;5.38;;;;;;;2.02;100.00;100243.97;10379434;28;20046;-75
2022/12/25 05:18:40;;;;;;;6.07;4.25;;;;;;;1.90;100.00;100239.56;10378562;28;20045;-75
2022/12/25 05:23:47;;;;;;;9.25;5.30;;;;;;;2.07;100.00;100244.00;10377434;28;20522;-75
2022/12/25 05:28:49;;;;;;;;;;;;;;;1.97;100.00;100251.72;10377628;28;20049;-75
2022/12/25 05:33:51;;;;;;;7.53;4.97;;;;;;;1.70;100.00;100236.88;10379259;28;19943;-76
2022/12/25 05:38:53;;;;;;;9.88;4.68;;;;;;;1.64;100.00;100233.34;10378268;28;20084;-75
2022/12/25 05:43:55;;;;;;;8.68;4.85;;;;;;;1.69;100.00;100237.72;10378291;28;20079;-75
2022/12/25 05:48:56;;;;;;;8.32;4.22;;;;;;;1.65;100.00;100245.47;10380827;28;20056;-74
2022/12/25 05:53:58;;;;;;;15.82;5.68;;;;;;;1.50;100.00;100247.06;10378557;28;20052;-76
2022/12/25 05:59:00;;;;;;;9.77;5.13;;;;;;;1.52;100.00;100244.50;10377975;28;20547;-75
2022/12/25 06:04:01;;;;;;;9.52;4.93;;;;;;;1.57;100.00;100245.41;10377876;28;20503;-75
2022/12/25 06:09:12;;;;;;;16.20;4.93;;;;;;;1.63;100.00;100234.22;10377314;28;20103;-76
2022/12/25 06:14:15;;;;;;;11.05;5.38;;;;;;;1.63;100.00;100237.66;10376842;28;20049;-75
2022/12/25 06:19:17;;;;;;;10.60;5.63;;;;;;;1.68;100.00;100235.09;10376567;28;20038;-74
2022/12/25 06:24:19;;;;;;;8.25;4.53;;;;;;;1.66;100.00;100234.25;10378215;28;20042;-75
2022/12/25 06:29:22;;;;;;;10.13;4.78;;;;;;;1.41;100.00;100222.81;10376128;28;20100;-75
2022/12/25 06:34:24;;;;;;;6.90;4.03;;;;;;;1.50;100.00;100213.38;10378112;28;20038;-75
2022/12/25 06:39:25;;;;;;;5.55;4.35;;;;;;;1.36;100.00;100222.75;10376439;28;20053;-76
2022/12/25 06:44:27;;;;;;;6.28;4.55;;;;;;;1.19;100.00;100227.78;10377402;28;20038;-76
2022/12/25 06:49:29;;;;;;;9.35;5.13;;;;;;;1.10;100.00;100239.78;10376474;28;20052;-76
2022/12/25 06:54:30;;;;;;;7.40;5.05;;;;;;;1.11;100.00;100234.66;10374414;28;20096;-76
2022/12/25 06:59:32;;;;;;;9.35;4.97;;;;;;;1.52;100.00;100239.31;10374709;28;20073;-74
2022/12/25 07:04:39;;;;;;;6.25;3.88;;;;;;;1.23;100.00;100234.75;10374958;28;20038;-75
2022/12/25 07:09:41;;;;;;;7.38;4.35;;;;;;;1.21;100.00;100227.81;10381478;28;20129;-76
2022/12/25 07:14:47;;;;;;;8.15;5.30;;;;;;;1.43;100.00;100245.28;10384597;28;20034;-75
2022/12/25 07:19:49;;;;;;;8.95;4.63;;;;;;;1.30;100.00;100246.03;10384775;28;20462;-76
2022/12/25 07:24:50;;;;;;;7.40;4.93;;;;;;;1.08;100.00;100259.63;10384349;28;20048;-76
2022/12/25 07:29:52;;;;;;;10.13;5.20;;;;;;;1.14;100.00;100270.91;10383285;28;20048;-76
2022/12/25 07:34:54;;;;;;;6.68;5.15;;;;;;;1.13;100.00;100260.53;10383724;28;20100;-76
2022/12/25 07:39:55;;;;;;;9.88;6.25;;;;;;;1.11;100.00;100260.53;10383762;28;20042;-76
2022/12/25 07:44:57;;;;;;;8.80;5.60;;;;;;;1.38;100.00;100257.34;10384086;28;20038;-75
2022/12/25 07:49:59;;;;;;;12.13;6.43;;;;;;;1.14;100.00;100264.84;10385787;28;20403;-75
2022/12/25 07:55:01;;;;;;;10.60;5.75;;;;;;;1.04;100.00;100278.56;10383970;28;20065;-75
2022/12/25 08:00:04;;;;;;;13.23;6.45;;;;;;;1.19;100.00;100273.53;10383282;28;20050;-74
2022/12/25 08:05:12;;;;;;;9.95;5.72;;;;;;;1.28;100.00;100276.22;10381909;28;20056;-75
2022/12/25 08:10:13;;;;;;;9.07;6.40;;;;;;;1.48;100.00;100282.47;10381036;28;20447;-75
2022/12/25 08:15:15;;;;;;;16.23;8.13;;;;;;;1.88;100.00;100285.38;10381758;28;20038;-74
2022/12/25 08:20:17;;;;;;;11.13;7.25;;;;;;;1.97;100.00;100284.56;10380003;28;20080;-74
2022/12/25 08:25:19;;;;;;;13.40;6.40;;;;;;;1.97;100.00;100280.25;10380135;28;20049;-74
2022/12/25 08:30:21;;;;;;;12.88;5.97;;;;;;;2.23;100.00;100285.63;10382120;28;20121;-75
2022/12/25 08:35:23;;;;;;;9.20;5.72;;;;;;;2.38;100.00;100291.75;10381366;28;20407;-75
2022/12/25 08:40:25;;;;;;;11.77;6.28;;;;;;;2.90;100.00;100300.63;10380751;28;20050;-75
2022/12/25 08:45:27;;;;;;;8.95;6.53;;;;;;;3.23;100.00;100283.41;10379977;28;20061;-75
2022/12/25 08:50:35;;;;;;;9.52;5.22;;;;;;;3.36;100.00;100268.69;10382323;28;20049;-75
2022/12/25 08:55:37;;;;;;;6.40;5.75;;;;;;;3.36;100.00;100264.38;10381007;28;20045;-76
2022/12/25 09:00:39;;;;;;;8.40;5.38;;;;;;;3.22;100.00;100263.50;10381594;28;20455;-77
2022/12/25 09:05:41;;;;;;;11.65;5.78;;;;;;;3.42;100.00;100260.94;10380063;28;20034;-77
2022/12/25 09:10:43;;;;;;;11.63;6.30;;;;;;;3.41;100.00;100254.88;10380494;28;20053;-77
2022/12/25 09:15:45;;;;;;;8.93;5.93;;;;;;;3.66;100.00;100244.47;10378906;28;20518;-75
2022/12/25 09:20:56;;;;;;;8.15;5.05;;;;;;;4.09;100.00;100250.50;10379489;28;20054;-78
2022/12/25 09:25:59;;;;;;;8.60;4.88;;;;;;;4.21;100.00;100237.47;10389482;28;20089;-78
2022/12/25 09:31:01;;;;;;;7.03;5.60;;;;;;;4.12;100.00;100208.88;10386120;28;20057;-77
2022/12/25 09:36:06;;;;;;;8.32;7.22;;;;;;;4.04;100.00;100203.69;10381235;28;20037;-75
2022/12/25 09:41:13;;;;;;;10.57;8.02;;;;;;;4.21;100.00;100197.56;10381625;28;20054;-77
2022/12/25 09:46:19;;;;;;;9.45;7.43;;;;;;;4.29;100.00;100191.47;10385286;28;20045;-77
2022/12/25 09:51:24;;;;;;;9.80;7.25;;;;;;;4.43;100.00;100198.34;10388835;28;20408;-76
2022/12/25 09:56:26;;;;;;;9.93;8.45;;;;;;;4.36;100.00;100192.28;10392304;28;20038;-77
2022/12/25 10:01:31;;;;;;;8.80;7.28;;;;;;;4.68;100.00;100176.50;10386609;28;20144;-76
2022/12/25 10:06:41;;;;;;;9.45;7.32;;;;;;;4.79;100.00;100173.88;10391719;28;20117;-77
2022/12/25 10:11:50;;;;;;;7.45;6.75;;;;;;;4.50;100.00;100200.03;10388279;28;20068;-77
2022/12/25 10:17:26;;;;;;;8.25;7.25;;;;;;;4.40;100.00;100177.53;10378741;28;20048;-76
2022/12/25 10:22:39;;;;;;;8.98;8.07;;;;;;;4.66;100.00;100175.66;10380858;28;20049;-76
2022/12/25 10:27:43;;;;;;;10.45;7.28;;;;;;;5.15;100.00;100170.13;10386184;28;20092;-77
2022/12/25 10:32:46;;;;;;;8.65;7.80;;;;;;;5.30;100.00;100169.16;10386707;28;20052;-77
2022/12/25 10:37:57;;;;;;;8.13;7.25;;;;;;;5.43;100.00;100143.84;10377710;28;20065;-75
2022/12/25 10:43:11;;;;;;;9.80;7.78;;;;;;;5.31;100.00;100152.63;10378048;28;20045;-75
2022/12/25 10:48:25;;;;;;;12.40;9.18;;;;;;;5.30;100.00;100148.28;10376060;28;20049;-73
2022/12/25 10:53:36;;;;;;;9.57;8.55;;;;;;;5.39;100.00;100153.44;10376322;28;20041;-74
2022/12/25 10:58:39;;;;;;;10.00;9.10;;;;;;;5.45;100.00;100137.75;10376810;28;20050;-74
2022/12/25 11:03:44;;;;;;;9.18;8.25;;;;;;;5.66;100.00;100141.88;10377504;28;20045;-74
2022/12/25 11:08:52;;;;;;;8.52;7.72;;;;;;;5.68;100.00;100141.88;10376321;28;20542;-76
2022/12/25 11:14:01;;;;;;;9.13;7.65;;;;;;;6.15;100.00;100124.84;10377299;28;20050;-74
2022/12/25 11:19:23;;;;;;;7.85;7.07;;;;;;;7.30;93.62;100139.72;10375976;28;20049;-75
2022/12/25 11:24:30;;;;;;;9.13;7.85;;;;;;;6.89;97.02;100146.47;10377087;28;20121;-75
2022/12/25 11:29:31;;;;;;;;;;;;;;;7.03;96.62;100127.94;10378318;28;20403;-75
2022/12/25 11:34:42;;;;;;;9.00;7.70;;;;;;;7.26;94.96;100118.00;10377080;28;20394;-75
2022/12/25 11:39:44;;;;;;;9.82;7.88;;;;;;;6.74;99.37;100084.00;10378970;28;20091;-76
2022/12/25 11:45:15;;;;;;;9.88;7.63;;;;;;;7.14;97.65;100079.00;10377616;28;20098;-75
2022/12/25 11:50:19;;;;;;;10.10;8.02;;;;;;;6.91;100.00;100070.69;10380059;28;20060;-75
2022/12/25 11:55:27;;;;;;;8.68;7.75;;;;;;;6.79;100.00;100054.28;10380176;28;20136;-76
2022/12/25 12:00:34;;;;;;;9.95;8.00;;;;;;;7.13;100.00;100045.00;10385175;28;20435;-76
2022/12/25 12:05:45;;;;;;;10.98;7.80;;;;;;;6.99;100.00;100034.81;10387307;28;20503;-76
2022/12/25 12:11:14;;;;;;;8.50;6.82;;;;;;;7.06;100.00;100016.38;10387385;28;20073;-76
2022/12/25 12:16:18;;;;;;;7.97;6.85;;;;;;;7.07;100.00;100018.09;10387577;28;20068;-75
2022/12/25 12:21:28;;;;;;;7.78;6.93;;;;;;;6.99;100.00;99993.84;10384604;28;20514;-74
2022/12/25 12:26:35;;;;;;;8.80;7.93;;;;;;;7.06;100.00;99994.63;10383620;28;20049;-74
2022/12/25 12:31:44;;;;;;;8.30;7.40;;;;;;;7.14;100.00;99997.97;10381182;28;20042;-74
2022/12/25 12:36:47;;;;;;;10.23;7.90;;;;;;;7.28;100.00;99987.22;10382216;28;20041;-74
2022/12/25 12:41:49;;;;;;;7.60;6.78;;;;;;;7.70;100.00;99974.19;10381127;28;20037;-75
2022/12/25 12:46:56;;;;;;;8.20;6.35;;;;;;;7.63;100.00;99962.13;10381193;28;20044;-74
2022/12/25 12:52:06;;;;;;;8.20;6.93;;;;;;;7.86;100.00;99957.25;10379875;28;20057;-74
2022/12/25 12:57:24;;;;;;;8.93;7.47;;;;;;;8.02;100.00;99942.94;10380912;28;20049;-75
2022/12/25 13:02:56;;;;;;;9.02;8.07;;;;;;;8.33;100.00;99934.38;10379163;28;20049;-76
2022/12/25 13:08:25;;;;;;;11.68;7.70;;;;;;;8.42;100.00;99900.13;10380700;28;20122;-77
2022/12/25 13:13:33;;;;;;;11.50;7.90;;;;;;;8.64;98.42;99910.06;10383148;28;20113;-77
2022/12/25 13:18:38;;;;;;;9.23;6.93;;;;;;;8.43;99.78;99930.66;10383058;28;20034;-77
2022/12/25 13:23:40;;;;;;;7.82;6.78;;;;;;;8.31;100.00;99944.00;10385002;28;20407;-77
2022/12/25 13:28:45;;;;;;;7.95;6.10;;;;;;;8.45;99.22;99959.44;10382919;28;20157;-76
2022/12/25 13:33:50;;;;;;;8.63;5.43;;;;;;;8.38;99.33;99958.72;10379435;28;20049;-76
2022/12/25 13:38:56;;;;;;;9.38;6.15;;;;;;;8.37;100.00;99964.88;10378978;28;20073;-75
2022/12/25 13:43:59;;;;;;;13.27;5.97;;;;;;;8.40;99.26;99975.25;10384708;28;20069;-78
2022/12/25 13:49:00;;;;;;;8.63;5.45;;;;;;;8.39;98.97;99960.44;10384940;28;20750;-78
2022/12/25 13:54:04;;;;;;;8.23;6.53;;;;;;;8.21;99.47;99951.22;10384069;28;20034;-78
2022/12/25 13:59:15;;;;;;;6.97;5.70;;;;;;;8.26;99.13;99956.38;10381741;28;20068;-77
2022/12/25 14:04:22;;;;;;;10.77;6.75;;;;;;;8.08;99.94;99950.66;10383680;28;20045;-78
2022/12/25 14:09:24;;;;;;;7.70;6.80;;;;;;;7.71;100.00;99961.09;10384719;28;20038;-78
2022/12/25 14:14:26;;;;;;;9.07;7.13;;;;;;;7.73;100.00;99961.03;10401432;28;20072;-77
2022/12/25 14:19:30;;;;;;;7.97;7.20;;;;;;;7.69;100.00;99936.69;10420484;28;20042;-79
2022/12/25 14:24:33;;;;;;;15.07;8.73;;;;;;;7.87;100.00;99929.34;10380723;28;20052;-76
2022/12/25 14:29:43;;;;;;;10.77;8.70;;;;;;;7.67;100.00;99922.78;10390338;28;20037;-76
2022/12/25 14:34:47;;;;;;;11.88;9.75;;;;;;;7.78;100.00;99923.41;10417598;28;20095;-75
2022/12/25 14:40:17;;;;;;;9.45;8.23;;;;;;;7.78;100.00;99917.31;10418081;28;20080;-76
2022/12/25 14:45:37;;;;;;;9.80;7.85;;;;;;;7.76;100.00;99906.91;10413703;28;20042;-74
2022/12/25 14:50:43;;;;;;;9.85;7.65;;;;;;;7.74;100.00;99900.81;10376238;28;20128;-77
2022/12/25 14:55:52;;;;;;;9.95;8.45;;;;;;;7.76;100.00;99890.34;10395650;22;20534;-76
2022/12/25 15:00:57;;;;;;;10.90;7.68;;;;;;;7.76;100.00;99880.72;10417747;28;20521;-77
2022/12/25 15:06:01;;;;;;;9.52;8.25;;;;;;;7.49;100.00;99902.28;10417810;28;20573;-76
2022/12/25 15:11:03;;;;;;;10.85;8.50;;;;;;;7.52;100.00;99895.19;10419643;28;20077;-76
2022/12/25 15:16:11;;;;;;;13.75;8.25;;;;;;;7.33;100.00;99884.28;10419428;28;20095;-76
2022/12/25 15:21:31;;;;;;;9.38;7.78;;;;;;;7.36;100.00;99854.59;10418160;28;20566;-75
2022/12/25 15:26:33;;;;;;;10.82;8.55;;;;;;;7.37;100.00;99858.91;10420871;28;20068;-76
2022/12/25 15:31:37;;;;;;;10.30;8.63;;;;;;;7.30;100.00;99858.22;10424384;28;20534;-76
2022/12/25 15:36:39;;;;;;;8.82;7.90;;;;;;;7.34;100.00;99861.59;10429236;28;20056;-76
2022/12/25 15:47:01;;;;;;;9.45;8.65;;;;;;;7.48;100.00;99837.75;10427130;28;20037;-77
2022/12/25 15:52:05;;;;;;;13.23;10.60;;;;;;;7.46;100.00;99835.19;10426739;28;20052;-77
2022/12/25 15:57:18;;;;;;;12.50;9.25;;;;;;;7.29;100.00;99843.38;10428973;28;20069;-77
2022/12/25 16:02:20;;;;;;;10.30;9.27;;;;;;;7.38;100.00;99846.72;10424156;28;20041;-76
2022/12/25 16:07:24;;;;;;;10.68;9.57;;;;;;;7.34;100.00;99840.69;10424950;28;20050;-77
2022/12/25 16:12:26;;;;;;;10.02;9.02;;;;;;;7.12;100.00;99823.72;10423360;28;20088;-76
2022/12/25 16:17:28;;;;;;;11.27;10.18;;;;;;;7.30;100.00;99810.25;10424835;28;20475;-76
2022/12/25 16:22:38;;;;;;;10.70;9.80;;;;;;;7.46;100.00;99800.31;10429570;28;20048;-77
2022/12/25 16:27:41;;;;;;;11.43;10.23;;;;;;;7.50;100.00;99810.69;10425559;28;20080;-75
2022/12/25 16:32:47;;;;;;;13.10;10.65;;;;;;;7.16;100.00;99809.72;10425221;28;20053;-75
2022/12/25 16:37:48;;;;;;;12.70;11.50;;;;;;;7.49;100.00;99810.72;10426227;28;20061;-76
2022/12/25 16:42:50;;;;;;;12.48;11.27;;;;;;;7.14;100.00;99828.03;10410349;28;20479;-76
2022/12/25 16:47:52;;;;;;;11.27;10.10;;;;;;;6.90;100.00;99836.38;10409802;28;20511;-76
2022/12/25 16:52:54;;;;;;;12.20;11.00;;;;;;;6.91;100.00;99831.13;10424499;28;20477;-76
2022/12/25 16:57:57;;;;;;;17.38;14.95;;;;;;;7.27;100.00;99789.44;10422653;28;20455;-76
2022/12/25 17:02:59;;;;;;;14.05;12.65;;;;;;;7.23;100.00;99787.78;10426836;28;20037;-75
2022/12/25 17:08:02;;;;;;;17.73;15.68;;;;;;;7.49;100.00;99769.75;10424795;28;20494;-75
2022/12/25 17:13:04;;;;;;;25.58;20.85;;;;;;;7.47;100.00;99742.75;10424232;28;20041;-75
2022/12/25 17:18:07;;;;;;;15.93;13.90;;;;;;;7.62;100.00;99740.69;10429823;28;20053;-75
2022/12/25 17:23:09;;;;;;;17.98;13.48;;;;;;;7.77;100.00;99735.06;10434800;28;20132;-74
2022/12/25 17:28:12;;;;;;;15.80;13.98;;;;;;;7.66;100.00;99710.91;10432012;28;20415;-75
2022/12/25 17:33:14;;;;;;;15.65;14.30;;;;;;;7.45;100.00;99702.72;10423176;28;20117;-75
2022/12/25 17:38:16;;;;;;;16.42;14.82;;;;;;;7.31;100.00;99692.59;10422481;28;20045;-76
2022/12/25 17:43:18;;;;;;;15.70;14.27;;;;;;;7.58;100.00;99685.81;10421608;28;20053;-75
2022/12/25 17:48:21;;;;;;;17.83;14.65;;;;;;;7.59;100.00;99664.00;10425662;28;20057;-75
2022/12/25 17:53:23;;;;;;;16.10;14.48;;;;;;;7.68;100.00;99664.66;10421119;28;20037;-75
2022/12/25 17:58:26;;;;;;;15.93;14.32;;;;;;;7.78;100.00;99663.50;10421034;28;20075;-74
2022/12/25 18:03:28;;;;;;;14.55;13.07;;;;;;;7.76;100.00;99658.31;10426678;28;20079;-76
2022/12/25 18:08:30;;;;;;;14.52;13.15;;;;;;;7.86;100.00;99663.31;10427925;28;20116;-76
2022/12/25 18:13:47;;;;;;;14.90;13.18;;;;;;;7.92;100.00;99660.53;10424575;28;20037;-75
2022/12/25 18:18:49;;;;;;;12.52;11.32;;;;;;;7.87;100.00;99646.72;10426461;28;20049;-75
2022/12/25 18:23:53;;;;;;;13.27;11.32;;;;;;;7.93;100.00;99643.94;10423956;28;20080;-76
2022/12/25 18:28:56;;;;;;;13.45;12.35;;;;;;;7.92;100.00;99635.19;10411856;28;20068;-75
2022/12/25 18:34:03;;;;;;;14.15;12.82;;;;;;;7.83;100.00;99630.22;10407739;28;20484;-76
2022/12/25 18:39:04;;;;;;;14.57;13.18;;;;;;;7.85;100.00;99625.81;10378104;28;20109;-74
2022/12/25 18:44:06;;;;;;;13.63;12.05;;;;;;;7.87;100.00;99629.25;10378377;28;20053;-76
2022/12/25 18:49:09;;;;;;;12.82;11.60;;;;;;;7.68;100.00;99626.28;10379672;28;20565;-77
2022/12/25 18:54:11;;;;;;;15.00;13.60;;;;;;;7.79;100.00;99641.66;10384249;28;20069;-75
2022/12/25 18:59:13;;;;;;;14.45;13.23;;;;;;;7.63;100.00;99632.53;10381143;28;20085;-75
2022/12/25 19:04:15;;;;;;;14.98;13.70;;;;;;;7.57;100.00;99637.03;10380798;28;20045;-75
2022/12/25 19:09:17;;;;;;;16.15;14.82;;;;;;;7.75;100.00;99647.91;10378872;28;20515;-77
2022/12/25 19:14:19;;;;;;;13.98;12.63;;;;;;;7.67;100.00;99647.25;10379856;28;20115;-75
2022/12/25 19:19:22;;;;;;;15.73;14.02;;;;;;;7.90;100.00;99641.41;10376746;28;20142;-75
2022/12/25 19:24:24;;;;;;;14.25;12.77;;;;;;;8.08;100.00;99633.88;10378148;28;20042;-75
2022/12/25 19:29:26;;;;;;;14.80;13.30;;;;;;;7.66;100.00;99617.63;10410211;28;20038;-75
2022/12/25 19:34:28;;;;;;;16.17;14.48;;;;;;;7.62;100.00;99620.34;10379689;28;20076;-75
2022/12/25 19:39:29;;;;;;;14.13;12.43;;;;;;;7.89;100.00;99621.38;10376889;28;20046;-76
2022/12/25 19:44:31;;;;;;;19.77;12.68;;;;;;;7.93;100.00;99623.88;10377876;28;20046;-75
2022/12/25 19:49:33;;;;;;;13.27;11.82;;;;;;;7.80;100.00;99625.09;10377805;28;20042;-75
2022/12/25 19:54:35;;;;;;;13.32;11.98;;;;;;;7.78;100.00;99617.25;10378035;28;20412;-75
2022/12/25 19:59:38;;;;;;;13.43;12.23;;;;;;;8.01;100.00;99603.56;10379837;28;20046;-76
2022/12/25 20:04:39;;;;;;;10.77;9.80;;;;;;;7.98;100.00;99593.19;10376747;28;20037;-76
2022/12/25 20:09:41;;;;;;;8.98;8.18;;;;;;;8.03;100.00;99587.81;10380770;28;20440;-75
2022/12/25 20:14:43;;;;;;;9.73;6.85;;;;;;;8.33;100.00;99588.69;10377107;28;20068;-74
2022/12/25 20:19:45;;;;;;;7.18;5.45;;;;;;;8.61;100.00;99585.25;10418497;28;20491;-75
2022/12/25 20:24:47;;;;;;;4.93;3.53;;;;;;;8.90;100.00;99576.47;10383988;28;20069;-75
2022/12/25 20:29:49;;;;;;;3.95;3.55;;;;;;;9.17;100.00;99579.97;10391108;28;20076;-75
2022/12/25 20:34:52;;;;;;;2.90;2.60;;;;;;;9.53;99.18;99583.13;10385350;28;20046;-75
2022/12/25 20:39:53;;;;;;;3.50;3.20;;;;;;;9.38;100.00;99587.09;10386092;28;20048;-75
2022/12/25 20:44:55;;;;;;;3.20;2.88;;;;;;;9.73;96.61;99588.50;10406266;28;20046;-75
2022/12/25 20:49:57;;;;;;;3.47;3.08;;;;;;;9.82;95.46;99569.78;10411997;28;20092;-74
2022/12/25 20:54:59;;;;;;;5.68;2.63;;;;;;;10.23;91.06;99574.47;10417325;28;20053;-75
2022/12/25 21:00:03;;;;;;;2.65;2.38;;;;;;;10.15;91.21;99579.13;10399662;23;20376;-71
2022/12/25 21:05:10;;;;;;;4.70;2.80;;;;;;;10.22;90.54;99563.06;10395512;28;20045;-71
2022/12/25 21:10:12;;;;;;;3.30;2.63;;;;;;;10.11;90.87;99566.13;10385383;28;20045;-70
2022/12/25 21:15:13;;;;;;;2.65;2.45;;;;;;;10.16;90.47;99570.34;10413862;28;20052;-71
2022/12/25 21:20:16;;;;;;;4.97;4.07;;;;;;;10.13;90.42;99567.81;10407863;28;20038;-70
2022/12/25 21:25:18;;;;;;;5.50;4.93;;;;;;;9.89;92.50;99561.72;10392024;28;20049;-70
2022/12/25 21:30:19;;;;;;;5.30;4.80;;;;;;;9.87;91.94;99551.25;10417405;28;20057;-70
2022/12/25 21:35:21;;;;;;;5.57;5.07;;;;;;;9.80;92.75;99566.38;10416486;28;20133;-71
2022/12/25 21:40:23;;;;;;;6.03;5.53;;;;;;;9.81;92.39;99560.22;10417713;28;20037;-70
2022/12/25 21:45:25;;;;;;;7.07;6.47;;;;;;;9.69;93.18;99551.91;10417750;28;20113;-70
2022/12/25 21:56:07;;;;;;;7.68;6.97;;;;;;;9.33;94.86;99562.78;10417271;28;20493;-70
2022/12/25 22:01:10;;;;;;;6.55;5.82;;;;;;;9.15;97.10;99564.28;10417613;28;20407;-70
2022/12/25 22:22:15;;;;;;;6.72;6.13;;;;;;;8.63;100.00;99559.84;10415868;28;20041;-69
2022/12/25 22:27:18;;;;;;;7.93;7.22;;;;;;;8.39;100.00;99558.88;10415728;28;20044;-69
2022/12/25 22:32:20;;;;;;;7.13;6.43;;;;;;;8.66;100.00;99544.06;10415103;28;20407;-69
2022/12/25 22:37:22;;;;;;;8.45;7.10;;;;;;;8.55;100.00;99544.41;10415910;28;20430;-69
2022/12/25 22:42:23;;;;;;;7.70;7.03;;;;;;;8.36;100.00;99549.28;10414381;28;20045;-69
2022/12/25 22:47:25;;;;;;;7.55;6.85;;;;;;;8.22;100.00;99560.19;10415503;28;20095;-69
2022/12/25 22:52:27;;;;;;;8.27;7.13;;;;;;;8.05;100.00;99554.59;10413742;28;20521;-70
2022/12/25 22:57:28;;;;;;;7.45;6.85;;;;;;;8.13;100.00;99550.00;10414591;28;20048;-70
2022/12/25 23:02:30;;;;;;;7.00;6.40;;;;;;;8.13;100.00;99554.38;10414099;28;20049;-70
2022/12/25 23:07:32;;;;;;;9.48;7.93;;;;;;;8.01;100.00;99556.47;10414245;28;20068;-70
2022/12/25 23:34:09;;;;;;;8.52;6.88;;;;;;;8.53;100.00;99564.53;10414421;28;20392;-69
2022/12/25 23:39:10;;;;;;;7.55;6.85;;;;;;;8.24;100.00;99555.78;10412623;28;20049;-69
2022/12/25 23:44:12;;;;;;;8.13;7.30;;;;;;;8.37;100.00;99553.69;10412444;28;20053;-69
2022/12/25 23:49:14;;;;;;;8.25;7.55;;;;;;;8.21;100.00;99565.47;10412520;28;20128;-71
2022/12/25 23:54:20;;;;;;;6.47;5.88;;;;;;;8.28;100.00;99560.03;10420833;28;20050;-69
2022/12/25 23:59:23;;;;;;;3.97;3.58;;;;;;;8.34;100.00;99540.63;10421481;28;20045;-70
